createdAt,value
2018-08-10T00:00:18.200Z,101655.78
2018-08-10T00:02:46.803Z,101653.10
2018-08-10T00:05:15.395Z,101669.02
2018-08-10T00:07:44.413Z,101675.63
2018-08-10T00:10:14.026Z,101667.21
2018-08-10T00:12:42.594Z,101682.66
2018-08-10T00:15:12.480Z,101684.03
2018-08-10T00:17:41.363Z,101691.55
2018-08-10T00:20:12.306Z,101690.23
2018-08-10T00:22:40.912Z,101702.59
2018-08-10T00:25:14.119Z,101694.16
2018-08-10T00:27:42.820Z,101698.98
2018-08-10T00:30:14.885Z,101703.68
2018-08-10T00:32:45.826Z,101707.61
2018-08-10T00:35:14.393Z,101715.62
2018-08-10T00:37:43.981Z,101725.42
2018-08-10T00:40:15.929Z,101728.63
2018-08-10T00:42:44.813Z,101732.22
2018-08-10T00:45:14.327Z,101740.18
2018-08-10T00:47:43.671Z,101748.55
2018-08-10T00:50:13.333Z,101739.72
2018-08-10T00:52:42.536Z,101750.39
2018-08-10T00:55:12.649Z,101758.34
2018-08-10T00:57:41.549Z,101761.46
2018-08-10T01:00:39.647Z,101769.15
2018-08-10T01:03:08.231Z,101765.55
2018-08-10T01:05:36.774Z,101762.87
2018-08-10T01:08:05.301Z,101776.57
2018-08-10T01:10:33.899Z,101780.58
2018-08-10T01:13:02.646Z,101771.72
2018-08-10T01:15:31.113Z,101778.30
2018-08-10T01:17:59.607Z,101781.83
2018-08-10T01:20:28.209Z,101793.20
2018-08-10T01:26:22.793Z,101801.61
2018-08-10T01:28:51.429Z,101789.62
2018-08-10T01:31:20.117Z,101806.73
2018-08-10T01:33:48.708Z,101811.95
2018-08-10T01:36:17.194Z,101804.73
2018-08-10T01:38:45.769Z,101810.75
2018-08-10T01:41:14.346Z,101811.00
2018-08-10T01:43:42.903Z,101815.73
2018-08-10T01:46:11.375Z,101821.44
2018-08-10T01:48:39.857Z,101823.23
2018-08-10T01:51:08.348Z,101837.67
2018-08-10T01:53:36.974Z,101839.86
2018-08-10T01:56:05.511Z,101831.41
2018-08-10T01:58:34.167Z,101845.16
2018-08-10T02:01:02.701Z,101847.31
2018-08-10T02:03:31.282Z,101845.48
2018-08-10T02:05:59.844Z,101850.32
2018-08-10T02:08:28.295Z,101842.77
2018-08-10T02:10:56.806Z,101849.39
2018-08-10T02:13:25.282Z,101842.17
2018-08-10T02:15:53.817Z,101850.48
2018-08-10T02:18:22.353Z,101857.86
2018-08-10T02:20:52.672Z,101858.25
2018-08-10T02:23:21.305Z,101858.14
2018-08-10T02:25:49.851Z,101855.45
2018-08-10T02:28:18.466Z,101855.06
2018-08-10T02:30:47.017Z,101854.59
2018-08-10T02:33:15.604Z,101864.66
2018-08-10T02:35:44.137Z,101869.92
2018-08-10T02:38:12.684Z,101866.80
2018-08-10T02:40:41.202Z,101868.95
2018-08-10T02:43:09.741Z,101870.59
2018-08-10T02:45:46.292Z,101873.74
2018-08-10T02:48:14.876Z,101871.06
2018-08-10T02:50:43.402Z,101874.99
2018-08-10T02:53:11.979Z,101869.27
2018-08-10T02:55:40.557Z,101878.94
2018-08-10T02:58:09.476Z,101883.22
2018-08-10T03:00:37.925Z,101877.81
2018-08-10T03:03:06.814Z,101884.39
2018-08-10T03:05:35.266Z,101887.97
2018-08-10T03:08:03.762Z,101889.22
2018-08-10T03:10:32.233Z,101891.02
2018-08-10T03:13:00.737Z,101894.48
2018-08-10T03:15:29.322Z,101896.59
2018-08-10T03:17:57.911Z,101895.27
2018-08-10T03:20:26.505Z,101896.55
2018-08-10T03:22:54.983Z,101905.27
2018-08-10T03:25:23.454Z,101898.14
2018-08-10T03:27:51.962Z,101897.30
2018-08-10T03:30:20.628Z,101895.07
2018-08-10T03:32:49.089Z,101906.09
2018-08-10T03:35:17.565Z,101901.65
2018-08-10T03:37:46.109Z,101900.25
2018-08-10T03:40:15.763Z,101905.55
2018-08-10T03:42:44.446Z,101896.67
2018-08-10T03:45:12.913Z,101905.00
2018-08-10T03:47:41.726Z,101910.76
2018-08-10T03:50:12.265Z,101913.83
2018-08-10T03:52:41.153Z,101915.50
2018-08-10T03:55:10.350Z,101917.34
2018-08-10T03:57:39.409Z,101920.45
2018-08-10T04:00:09.977Z,101924.84
2018-08-10T04:02:38.788Z,101929.24
2018-08-10T04:05:08.264Z,101924.80
2018-08-10T04:07:36.745Z,101931.04
2018-08-10T04:10:06.698Z,101934.53
2018-08-10T04:12:35.728Z,101938.04
2018-08-10T04:15:05.254Z,101936.16
2018-08-10T04:17:33.781Z,101937.37
2018-08-10T04:20:02.257Z,101941.77
2018-08-10T04:22:30.837Z,101945.66
2018-08-10T04:24:59.405Z,101943.52
2018-08-10T04:27:27.851Z,101942.19
2018-08-10T04:29:56.464Z,101947.83
2018-08-10T04:32:25.131Z,101961.91
2018-08-10T04:34:53.626Z,101957.05
2018-08-10T04:37:22.135Z,101956.70
2018-08-10T04:39:50.846Z,101956.32
2018-08-10T04:42:19.436Z,101961.23
2018-08-10T04:44:47.992Z,101965.20
2018-08-10T04:47:16.705Z,101975.23
2018-08-10T04:49:45.252Z,101973.83
2018-08-10T04:52:13.734Z,101976.09
2018-08-10T04:54:42.520Z,101980.99
2018-08-10T04:57:11.082Z,101985.91
2018-08-10T04:59:39.597Z,101989.06
2018-08-10T05:02:08.261Z,101976.80
2018-08-10T05:04:36.765Z,101983.08
2018-08-10T05:07:05.261Z,101986.32
2018-08-10T05:09:33.822Z,101986.02
2018-08-10T05:12:02.446Z,101989.69
2018-08-10T05:14:31.001Z,101996.89
2018-08-10T05:16:59.568Z,101995.30
2018-08-10T05:19:28.079Z,101996.78
2018-08-10T05:21:56.642Z,102001.93
2018-08-10T05:24:25.135Z,102008.12
2018-08-10T05:26:53.788Z,102009.09
2018-08-10T05:29:22.397Z,102004.19
2018-08-10T05:31:50.857Z,102018.73
2018-08-10T05:34:19.350Z,102005.83
2018-08-10T05:36:47.856Z,102007.25
2018-08-10T05:39:16.404Z,102007.75
2018-08-10T05:41:44.912Z,102008.84
2018-08-10T05:44:13.349Z,102008.11
2018-08-10T05:46:41.886Z,102014.03
2018-08-10T05:49:10.535Z,102010.80
2018-08-10T05:51:39.053Z,102016.61
2018-08-10T05:54:08.165Z,102012.59
2018-08-10T05:56:36.797Z,102014.36
2018-08-10T05:59:05.282Z,102023.97
2018-08-10T06:01:33.746Z,102027.47
2018-08-10T06:04:02.493Z,102033.70
2018-08-10T06:06:30.840Z,102032.75
2018-08-10T06:08:59.364Z,102037.13
2018-08-10T06:11:27.935Z,102027.86
2018-08-10T06:13:56.513Z,102039.73
2018-08-10T06:16:24.949Z,102038.34
2018-08-10T06:18:53.556Z,102040.93
2018-08-10T06:21:22.062Z,102033.86
2018-08-10T06:23:50.513Z,102041.83
2018-08-10T06:26:19.111Z,102035.77
2018-08-10T06:28:47.689Z,102038.17
2018-08-10T06:31:16.262Z,102029.02
2018-08-10T06:33:44.813Z,102036.22
2018-08-10T06:36:13.345Z,102036.33
2018-08-10T06:38:41.812Z,102040.31
2018-08-10T06:41:10.610Z,102040.37
2018-08-10T06:43:39.088Z,102047.02
2018-08-10T06:46:07.576Z,102049.18
2018-08-10T06:48:36.055Z,102039.88
2018-08-10T06:51:04.931Z,102052.59
2018-08-10T06:53:33.412Z,102046.55
2018-08-10T06:56:01.990Z,102044.94
2018-08-10T06:58:30.496Z,102050.97
2018-08-10T07:00:59.098Z,102053.78
2018-08-10T07:03:27.550Z,102050.37
2018-08-10T07:05:55.998Z,102048.00
2018-08-10T07:08:24.460Z,102048.10
2018-08-10T07:10:52.961Z,102059.27
2018-08-10T07:13:21.540Z,102050.98
2018-08-10T07:15:50.061Z,102054.24
2018-08-10T07:18:18.752Z,102052.11
2018-08-10T07:20:47.344Z,102058.28
2018-08-10T07:23:15.821Z,102060.63
2018-08-10T07:25:44.312Z,102064.27
2018-08-10T07:28:12.889Z,102059.93
2018-08-10T07:30:41.408Z,102067.57
2018-08-10T07:33:09.857Z,102069.94
2018-08-10T07:35:38.360Z,102068.84
2018-08-10T07:38:06.914Z,102073.05
2018-08-10T07:40:35.393Z,102073.47
2018-08-10T07:43:03.910Z,102061.41
2018-08-10T07:45:32.466Z,102083.19
2018-08-10T07:48:01.054Z,102080.11
2018-08-10T07:50:29.641Z,102082.73
2018-08-10T07:52:58.125Z,102082.15
2018-08-10T07:55:26.608Z,102090.86
2018-08-10T07:57:55.068Z,102094.55
2018-08-10T08:00:23.604Z,102090.95
2018-08-10T08:02:52.186Z,102098.05
2018-08-10T08:05:24.201Z,102092.61
2018-08-10T08:07:52.757Z,102096.60
2018-08-10T08:10:21.240Z,102103.82
2018-08-10T08:12:49.872Z,102103.52
2018-08-10T08:15:18.448Z,102103.67
2018-08-10T08:17:47.072Z,102089.14
2018-08-10T08:20:15.592Z,102098.95
2018-08-10T08:22:44.097Z,102102.98
2018-08-10T08:25:12.612Z,102093.36
2018-08-10T08:27:41.180Z,102102.73
2018-08-10T08:30:10.384Z,102106.42
2018-08-10T08:32:38.984Z,102100.27
2018-08-10T08:35:08.833Z,102102.57
2018-08-10T08:37:39.330Z,102091.09
2018-08-10T08:40:15.454Z,102091.98
2018-08-10T08:42:47.385Z,102097.81
2018-08-10T08:46:04.248Z,102090.64
2018-08-10T08:48:36.502Z,102096.60
2018-08-10T08:51:09.219Z,102097.20
2018-08-10T08:53:39.655Z,102090.19
2018-08-10T08:56:19.590Z,102089.47
2018-08-10T08:58:51.442Z,102091.34
2018-08-10T09:01:21.678Z,102093.12
2018-08-10T09:04:22.979Z,102088.30
2018-08-10T09:06:53.387Z,102085.19
2018-08-10T09:09:37.525Z,102084.81
2018-08-10T09:12:21.669Z,102086.56
2018-08-10T09:15:03.495Z,102082.69
2018-08-10T09:17:34.429Z,102096.02
2018-08-10T09:20:04.595Z,102096.84
2018-08-10T09:22:35.323Z,102098.27
2018-08-10T09:25:06.535Z,102089.38
2018-08-10T09:27:37.218Z,102098.77
2018-08-10T09:30:08.797Z,102098.77
2018-08-10T09:32:39.938Z,102102.85
2018-08-10T09:35:11.001Z,102097.95
2018-08-10T09:37:41.219Z,102094.41
2018-08-10T09:40:14.392Z,102089.50
2018-08-10T09:42:46.026Z,102094.41
2018-08-10T09:45:16.582Z,102094.40
2018-08-10T09:47:47.560Z,102097.97
2018-08-10T09:50:18.168Z,102090.83
2018-08-10T09:53:01.168Z,102096.17
2018-08-10T09:55:34.292Z,102107.31
2018-08-10T09:58:10.473Z,102101.00
2018-08-10T10:00:45.818Z,102101.94
2018-08-10T10:03:25.034Z,102101.06
2018-08-10T10:05:57.815Z,102109.53
2018-08-10T10:08:28.811Z,102105.53
2018-08-10T10:10:59.547Z,102100.21
2018-08-10T10:13:29.408Z,102101.09
2018-08-10T10:15:59.585Z,102101.98
2018-08-10T10:18:40.615Z,102083.24
2018-08-10T10:21:21.311Z,102105.11
2018-08-10T10:23:52.149Z,102091.25
2018-08-10T10:26:22.511Z,102100.64
2018-08-10T10:28:52.655Z,102093.50
2018-08-10T10:31:22.689Z,102096.16
2018-08-10T10:33:52.163Z,102079.62
2018-08-10T10:36:22.622Z,102089.92
2018-08-10T10:38:53.886Z,102097.08
2018-08-10T10:41:49.617Z,102082.80
2018-08-10T10:44:18.170Z,102082.80
2018-08-10T10:46:46.639Z,102081.41
2018-08-10T10:49:15.438Z,102084.41
2018-08-10T10:51:44.066Z,102084.77
2018-08-10T10:54:12.610Z,102089.11
2018-08-10T10:56:41.285Z,102087.72
2018-08-10T10:59:09.803Z,102086.10
2018-08-10T11:01:38.383Z,102084.67
2018-08-10T11:04:06.831Z,102086.80
2018-08-10T11:06:35.347Z,102085.91
2018-08-10T11:09:05.030Z,102090.09
2018-08-10T11:11:33.524Z,102085.55
2018-08-10T11:14:02.097Z,102076.09
2018-08-10T11:16:30.547Z,102067.98
2018-08-10T11:18:59.065Z,102064.71
2018-08-10T11:21:27.544Z,102075.58
2018-08-10T11:23:56.050Z,102070.48
2018-08-10T11:26:24.612Z,102072.05
2018-08-10T11:28:53.212Z,102064.98
2018-08-10T11:31:21.774Z,102086.12
2018-08-10T11:33:50.263Z,102087.53
2018-08-10T11:36:18.717Z,102091.84
2018-08-10T11:38:47.221Z,102083.99
2018-08-10T11:41:15.712Z,102087.13
2018-08-10T11:43:44.292Z,102091.19
2018-08-10T11:46:16.405Z,102092.97
2018-08-10T11:48:45.025Z,102087.42
2018-08-10T11:51:14.945Z,102083.61
2018-08-10T11:53:43.609Z,102072.03
2018-08-10T11:56:12.312Z,102074.81
2018-08-10T11:58:40.814Z,102067.97
2018-08-10T12:01:09.324Z,102078.48
2018-08-10T12:03:37.808Z,102084.91
2018-08-10T12:06:06.399Z,102054.03
2018-08-10T12:08:34.862Z,102071.41
2018-08-10T12:11:03.332Z,102054.59
2018-08-10T12:13:31.890Z,102054.55
2018-08-10T12:16:00.439Z,102063.69
2018-08-10T12:18:28.962Z,102078.80
2018-08-10T12:20:57.617Z,102073.79
2018-08-10T12:23:26.163Z,102063.23
2018-08-10T12:25:54.717Z,102070.01
2018-08-10T12:28:24.534Z,102071.98
2018-08-10T12:30:53.044Z,102071.88
2018-08-10T12:33:22.029Z,102068.64
2018-08-10T12:35:50.614Z,102057.11
2018-08-10T12:38:19.195Z,102037.89
2018-08-10T12:40:47.869Z,102048.69
2018-08-10T12:43:16.651Z,102061.53
2018-08-10T12:45:45.137Z,102063.71
2018-08-10T12:48:13.814Z,102061.05
2018-08-10T12:50:42.392Z,102061.56
2018-08-10T12:53:11.093Z,102065.55
2018-08-10T12:55:39.866Z,102053.53
2018-08-10T12:58:08.499Z,102060.28
2018-08-10T13:00:37.064Z,102052.88
2018-08-10T13:03:05.710Z,102053.86
2018-08-10T13:05:34.218Z,102048.91
2018-08-10T13:08:02.819Z,102048.27
2018-08-10T13:10:31.405Z,102047.34
2018-08-10T13:12:59.951Z,102043.91
2018-08-10T13:15:28.549Z,102034.47
2018-08-10T13:17:57.118Z,102042.38
2018-08-10T13:20:25.660Z,102050.19
2018-08-10T13:22:54.226Z,102026.84
2018-08-10T13:25:22.784Z,102059.00
2018-08-10T13:27:51.453Z,102048.89
2018-08-10T13:30:20.053Z,102048.97
2018-08-10T13:32:48.608Z,102037.57
2018-08-10T13:35:43.776Z,102050.24
2018-08-10T13:38:12.276Z,102048.43
2018-08-10T13:40:40.928Z,102041.09
2018-08-10T13:43:09.568Z,102033.65
2018-08-10T13:45:38.087Z,102033.13
2018-08-10T13:48:07.001Z,102040.50
2018-08-10T13:50:35.705Z,102037.02
2018-08-10T13:53:04.232Z,102026.57
2018-08-10T13:55:32.851Z,102028.59
2018-08-10T13:58:01.557Z,102026.07
2018-08-10T14:00:30.126Z,102030.55
2018-08-10T14:02:58.607Z,102027.73
2018-08-10T14:05:27.154Z,102029.33
2018-08-10T14:07:55.655Z,102030.19
2018-08-10T14:13:50.902Z,102014.47
2018-08-10T14:16:19.595Z,102021.56
2018-08-10T14:18:48.133Z,102015.69
2018-08-10T14:21:22.492Z,102013.17
2018-08-10T14:24:09.949Z,102002.16
2018-08-10T14:26:38.609Z,102002.59
2018-08-10T14:29:07.289Z,102004.94
2018-08-10T14:31:35.928Z,101996.48
2018-08-10T14:34:04.591Z,101991.61
2018-08-10T14:36:33.112Z,101993.09
2018-08-10T14:39:01.599Z,101986.31
2018-08-10T14:41:30.039Z,101995.87
2018-08-10T14:43:58.574Z,102002.28
2018-08-10T14:46:27.163Z,101996.34
2018-08-10T14:48:55.758Z,102006.05
2018-08-10T14:51:24.321Z,101999.29
2018-08-10T14:53:52.938Z,101996.11
2018-08-10T14:56:21.538Z,101977.91
2018-08-10T14:58:50.224Z,101985.27
2018-08-10T15:01:18.833Z,101983.36
2018-08-10T15:03:47.442Z,101984.61
2018-08-10T15:06:16.116Z,101979.77
2018-08-10T15:08:45.627Z,101975.81
2018-08-10T15:11:14.236Z,101971.01
2018-08-10T15:13:43.206Z,101968.91
2018-08-10T15:16:11.707Z,101969.29
2018-08-10T15:18:40.297Z,101979.47
2018-08-10T15:21:08.905Z,101969.91
2018-08-10T15:23:37.443Z,101965.54
2018-08-10T15:26:06.254Z,101950.67
2018-08-10T15:28:34.756Z,101957.78
2018-08-10T15:31:03.265Z,101965.00
2018-08-10T15:33:32.611Z,101961.84
2018-08-10T15:36:01.214Z,101956.20
2018-08-10T15:38:29.883Z,101945.03
2018-08-10T15:40:58.447Z,101962.39
2018-08-10T15:43:26.949Z,101954.44
2018-08-10T15:45:55.372Z,101955.85
2018-08-10T15:48:24.028Z,101961.95
2018-08-10T15:50:52.498Z,101940.25
2018-08-10T15:53:21.084Z,101950.94
2018-08-10T15:55:49.577Z,101945.77
2018-08-10T15:58:18.123Z,101934.34
2018-08-10T16:00:46.752Z,101939.57
2018-08-10T16:03:15.312Z,101933.91
2018-08-10T16:05:43.889Z,101930.42
2018-08-10T16:08:12.374Z,101922.14
2018-08-10T16:10:40.938Z,101917.86
2018-08-10T16:13:09.532Z,101924.66
2018-08-10T16:15:38.090Z,101923.67
2018-08-10T16:18:06.612Z,101917.33
2018-08-10T16:20:35.265Z,101921.25
2018-08-10T16:23:03.885Z,101919.21
2018-08-10T16:25:32.474Z,101922.27
2018-08-10T16:28:01.045Z,101909.95
2018-08-10T16:30:29.630Z,101913.67
2018-08-10T16:32:58.524Z,101912.30
2018-08-10T16:35:27.077Z,101897.94
2018-08-10T16:37:55.663Z,101904.89
2018-08-10T16:40:24.170Z,101907.81
2018-08-10T16:42:52.913Z,101909.52
2018-08-10T16:45:21.535Z,101903.02
2018-08-10T16:47:50.023Z,101910.66
2018-08-10T16:50:19.614Z,101896.77
2018-08-10T16:52:48.224Z,101895.80
2018-08-10T16:55:19.067Z,101906.27
2018-08-10T16:57:48.325Z,101910.06
2018-08-10T17:00:18.765Z,101904.13
2018-08-10T17:02:47.852Z,101912.34
2018-08-10T17:05:16.520Z,101908.89
2018-08-10T17:07:45.252Z,101903.03
2018-08-10T17:10:13.970Z,101913.64
2018-08-10T17:12:43.841Z,101901.76
2018-08-10T17:15:14.969Z,101901.95
2018-08-10T17:17:44.525Z,101898.94
2018-08-10T17:20:13.597Z,101894.74
2018-08-10T17:22:42.926Z,101904.55
2018-08-10T17:25:13.021Z,101897.88
2018-08-10T17:27:41.641Z,101891.24
2018-08-10T17:30:12.628Z,101890.48
2018-08-10T17:32:41.229Z,101893.83
2018-08-10T17:35:11.372Z,101887.23
2018-08-10T17:37:40.363Z,101884.19
2018-08-10T17:40:09.832Z,101882.50
2018-08-10T17:42:38.660Z,101864.97
2018-08-10T17:45:10.776Z,101877.59
2018-08-10T17:47:39.715Z,101877.66
2018-08-10T17:50:13.192Z,101878.59
2018-08-10T17:52:44.521Z,101873.77
2018-08-10T17:55:14.244Z,101879.55
2018-08-10T17:57:43.078Z,101875.09
2018-08-10T18:00:15.468Z,101853.70
2018-08-10T18:02:44.748Z,101874.29
2018-08-10T18:05:14.416Z,101872.06
2018-08-10T18:07:43.138Z,101868.92
2018-08-10T18:10:12.643Z,101866.27
2018-08-10T18:12:41.807Z,101866.70
2018-08-10T18:15:14.752Z,101871.63
2018-08-10T18:17:43.552Z,101862.69
2018-08-10T18:20:15.338Z,101872.55
2018-08-10T18:22:45.136Z,101868.53
2018-08-10T18:25:15.028Z,101865.89
2018-08-10T18:27:44.364Z,101868.61
2018-08-10T18:30:15.740Z,101859.70
2018-08-10T18:32:44.613Z,101866.43
2018-08-10T18:35:13.195Z,101861.99
2018-08-10T18:37:43.128Z,101856.20
2018-08-10T18:40:13.290Z,101869.22
2018-08-10T18:42:42.952Z,101867.49
2018-08-10T18:45:13.330Z,101864.41
2018-08-10T18:47:42.081Z,101867.59
2018-08-10T18:50:12.404Z,101865.38
2018-08-10T18:52:41.542Z,101870.30
2018-08-10T18:55:12.589Z,101868.11
2018-08-10T18:57:41.394Z,101868.14
2018-08-10T19:00:12.942Z,101871.72
2018-08-10T19:02:41.496Z,101872.18
2018-08-10T19:05:12.330Z,101873.10
2018-08-10T19:07:40.875Z,101869.55
2018-08-10T19:10:11.279Z,101874.00
2018-08-10T19:12:39.857Z,101865.98
2018-08-10T19:15:11.162Z,101868.66
2018-08-10T19:17:40.178Z,101865.55
2018-08-10T19:20:32.417Z,101861.99
2018-08-10T19:23:14.420Z,101871.80
2018-08-10T19:25:44.445Z,101866.02
2018-08-10T19:28:13.242Z,101874.05
2018-08-10T19:30:42.650Z,101878.05
2018-08-10T19:33:11.509Z,101878.49
2018-08-10T19:35:40.593Z,101879.38
2018-08-10T19:38:09.161Z,101874.89
2018-08-10T19:40:37.756Z,101874.88
2018-08-10T19:43:06.921Z,101879.78
2018-08-10T19:45:36.890Z,101874.00
2018-08-10T19:48:05.883Z,101867.31
2018-08-10T19:50:34.644Z,101870.45
2018-08-10T19:53:03.192Z,101877.60
2018-08-10T19:55:31.869Z,101883.41
2018-08-10T19:58:00.513Z,101878.97
2018-08-10T20:00:29.127Z,101878.94
2018-08-10T20:02:58.011Z,101876.72
2018-08-10T20:05:26.548Z,101871.82
2018-08-10T20:07:55.329Z,101874.95
2018-08-10T20:10:24.022Z,101872.27
2018-08-10T20:13:09.442Z,101871.83
2018-08-10T20:15:41.867Z,101874.50
2018-08-10T20:18:10.281Z,101865.59
2018-08-10T20:20:38.976Z,101870.95
2018-08-10T20:23:07.479Z,101866.05
2018-08-10T20:25:36.422Z,101867.39
2018-08-10T20:28:05.482Z,101870.51
2018-08-10T20:30:34.483Z,101870.95
2018-08-10T20:33:03.322Z,101872.73
2018-08-10T20:35:32.061Z,101860.70
2018-08-10T20:38:00.685Z,101866.05
2018-08-10T20:40:29.489Z,101866.91
2018-08-10T20:42:59.403Z,101869.58
2018-08-10T20:45:30.385Z,101865.13
2018-08-10T20:47:59.000Z,101868.69
2018-08-10T20:50:27.608Z,101866.02
2018-08-10T20:52:56.136Z,101870.47
2018-08-10T20:55:24.929Z,101865.58
2018-08-10T20:57:54.022Z,101867.80
2018-08-10T21:00:22.753Z,101867.36
2018-08-10T21:02:51.500Z,101866.46
2018-08-10T21:05:20.354Z,101865.56
2018-08-10T21:07:50.287Z,101867.33
2018-08-10T21:10:18.963Z,101864.22
2018-08-10T21:12:48.165Z,101869.11
2018-08-10T21:15:17.428Z,101864.66
2018-08-10T21:17:46.932Z,101859.76
2018-08-10T21:20:16.912Z,101855.75
2018-08-10T21:22:45.504Z,101849.96
2018-08-10T21:25:14.623Z,101857.97
2018-08-10T21:27:43.777Z,101854.41
2018-08-10T21:30:16.362Z,101860.19
2018-08-10T21:32:45.242Z,101856.17
2018-08-10T21:35:14.206Z,101852.61
2018-08-10T21:37:43.030Z,101849.93
2018-08-10T21:40:12.018Z,101851.25
2018-08-10T21:42:41.852Z,101855.25
2018-08-10T21:45:11.843Z,101843.22
2018-08-10T21:47:40.543Z,101855.22
2018-08-10T21:50:12.811Z,101848.47
2018-08-10T21:52:42.261Z,101842.68
2018-08-10T21:55:11.325Z,101839.10
2018-08-10T21:57:40.336Z,101837.76
2018-08-10T22:00:51.279Z,101841.31
2018-08-10T22:03:21.084Z,101835.50
2018-08-10T22:05:50.143Z,101838.16
2018-08-10T22:08:19.950Z,101833.69
2018-08-10T22:10:48.923Z,101836.33
2018-08-10T22:13:23.171Z,101842.53
2018-08-10T22:15:56.995Z,101838.05
2018-08-10T22:18:30.842Z,101836.70
2018-08-10T22:20:59.433Z,101838.03
2018-08-10T22:23:29.015Z,101838.45
2018-08-10T22:25:58.593Z,101837.11
2018-08-10T22:28:27.246Z,101843.32
2018-08-10T22:30:56.004Z,101840.64
2018-08-10T22:33:24.604Z,101846.86
2018-08-10T22:35:53.270Z,101850.41
2018-08-10T22:38:21.782Z,101843.30
2018-08-10T22:40:50.286Z,101841.53
2018-08-10T22:43:18.864Z,101848.22
2018-08-10T22:45:47.467Z,101850.88
2018-08-10T22:48:16.010Z,101844.20
2018-08-10T22:50:44.649Z,101848.64
2018-08-10T22:53:13.262Z,101852.64
2018-08-10T22:55:41.768Z,101856.63
2018-08-10T22:58:10.376Z,101857.48
2018-08-10T23:00:39.027Z,101864.11
2018-08-10T23:03:07.712Z,101860.13
2018-08-10T23:05:36.225Z,101867.71
2018-08-10T23:08:04.791Z,101874.82
2018-08-10T23:10:33.271Z,101877.53
2018-08-10T23:13:11.518Z,101881.09
2018-08-10T23:15:40.142Z,101885.93
2018-08-10T23:18:08.639Z,101899.66
2018-08-10T23:20:37.169Z,101906.73
2018-08-10T23:23:05.733Z,101906.66
2018-08-10T23:25:34.215Z,101910.98
2018-08-10T23:28:02.760Z,101909.13
2018-08-10T23:30:32.568Z,101909.09
2018-08-10T23:33:01.172Z,101913.89
2018-08-10T23:35:29.682Z,101923.00
2018-08-10T23:37:58.149Z,101907.77
2018-08-10T23:40:26.723Z,101920.98
2018-08-10T23:42:55.320Z,101924.87
2018-08-10T23:45:23.921Z,101925.53
2018-08-10T23:47:52.900Z,101932.41
2018-08-10T23:50:21.500Z,101952.84
2018-08-10T23:52:50.092Z,101942.59
2018-08-10T23:55:19.743Z,101952.33
2018-08-10T23:57:48.386Z,101950.73
